Ross Siding, Pennsylvania
Current Conditions -  °F | °C
As of 12:55 PM on Friday 21 Nov 2014 (Local Time) from KN38 Reporting Station
Scattered Clouds Scattered Clouds  
Wind Chill:   Ceiling: Unl
Heat Index: 23°   Visibility: 10mi
Dew Point:   Wind: 17mph
Humidity: 54%   Direction: 310°NW
Pressure: 30.3"   Gusts: NA
Location:  41.426°N, 77.4189°W
Report Text: KN38 211755Z AUTO 31015KT 10SM SCT037 SCT044 M05/M13 A3030 RMK AO2
Loading
Personal Weather Stations






























Interactive Weather Map New forecast layout! Learn more

10-Day Weather Forecast

Advertisements
Track Severe Weather on mobile